Time;durP1;ratioP1;P1;durP2;ratioP2;P2;SDS_P1;SDS_P2;PMS_P1;PMS_P2;Temp;Humidity;BMP_temperature;BMP_pressure;BME280_temperature;BME280_humidity;BME280_pressure;Samples;Min_cycle;Max_cycle;Signal;HPM_P1;HPM_P2
2024/03/26 00:00:49;;;;;;;;;5.40;4.40;;;;;14.87;84.67;98631.41;2103392;27;47382;-63
2024/03/26 00:01:50;;;;;;;;;4.00;4.00;;;;;14.83;84.88;98628.06;2104859;27;46615;-62
2024/03/26 00:02:50;;;;;;;;;6.00;6.00;;;;;14.87;85.11;98620.72;2102272;28;46652;-62
2024/03/26 00:03:50;;;;;;;;;5.50;5.50;;;;;14.84;85.14;98624.44;2097264;27;46893;-63
2024/03/26 00:04:51;;;;;;;;;4.00;4.00;;;;;14.87;85.53;98624.25;2102465;28;46662;-63
2024/03/26 00:05:51;;;;;;;;;5.33;4.33;;;;;14.89;85.08;98621.47;2099558;27;46129;-62
2024/03/26 00:06:52;;;;;;;;;5.00;5.00;;;;;14.85;85.30;98615.47;2104930;28;46244;-63
2024/03/26 00:07:52;;;;;;;;;4.67;4.67;;;;;14.87;85.14;98613.56;2100858;28;46620;-63
2024/03/26 00:08:53;;;;;;;;;5.00;5.00;;;;;14.88;85.17;98611.75;2100757;28;46375;-62
2024/03/26 00:09:53;;;;;;;;;4.33;4.33;;;;;14.86;85.34;98609.16;2104288;27;46390;-64
2024/03/26 00:10:54;;;;;;;;;5.00;5.00;;;;;14.87;85.20;98610.03;2098608;27;46577;-64
2024/03/26 00:11:55;;;;;;;;;5.00;5.00;;;;;14.91;84.91;98614.19;2104189;28;46747;-65
2024/03/26 00:12:55;;;;;;;;;6.80;6.80;;;;;14.89;85.03;98608.09;2109091;27;46171;-63
2024/03/26 00:13:56;;;;;;;;;6.00;6.00;;;;;14.85;85.37;98606.59;2113075;27;46395;-64
2024/03/26 00:14:56;;;;;;;;;6.50;6.25;;;;;14.79;85.44;98605.25;2101454;27;46545;-63
2024/03/26 00:15:57;;;;;;;;;6.33;6.00;;;;;14.76;86.19;98599.28;2097287;28;46031;-64
2024/03/26 00:16:57;;;;;;;;;4.00;3.67;;;;;14.96;85.44;98601.34;2104018;28;46544;-63
2024/03/26 00:17:57;;;;;;;;;7.00;5.00;;;;;14.96;85.33;98604.00;2103347;28;46641;-63
2024/03/26 00:18:58;;;;;;;;;6.00;6.00;;;;;14.91;85.62;98601.69;2096611;28;45183;-64
2024/03/26 00:19:58;;;;;;;;;5.33;5.33;;;;;14.89;85.59;98606.28;2104162;28;46321;-64
2024/03/26 00:20:58;;;;;;;;;7.33;5.00;;;;;14.86;85.51;98598.47;2104586;27;46690;-64
2024/03/26 00:21:59;;;;;;;;;6.00;6.00;;;;;14.90;85.81;98601.78;2102247;27;46218;-63
2024/03/26 00:22:59;;;;;;;;;6.67;5.00;;;;;14.89;85.97;98605.44;2101623;27;46384;-63
2024/03/26 00:24:00;;;;;;;;;5.00;5.00;;;;;14.90;85.64;98604.47;2101382;28;45461;-63
2024/03/26 00:25:00;;;;;;;;;5.33;5.33;;;;;14.91;85.78;98604.34;2099187;28;47045;-63
2024/03/26 00:26:01;;;;;;;;;5.00;5.00;;;;;14.90;86.11;98601.78;2102439;28;45452;-62
2024/03/26 00:27:02;;;;;;;;;6.00;5.00;;;;;14.89;85.97;98605.44;2096709;28;46442;-63
2024/03/26 00:28:02;;;;;;;;;4.00;4.00;;;;;14.88;86.14;98606.41;2102488;27;46779;-63
2024/03/26 00:29:03;;;;;;;;;6.00;6.00;;;;;14.82;86.45;98605.00;2102239;28;47002;-62
2024/03/26 00:30:03;;;;;;;;;7.50;6.75;;;;;14.90;85.99;98605.31;2104296;27;46679;-63
2024/03/26 00:31:04;;;;;;;;;4.00;4.00;;;;;14.89;86.38;98603.63;2094416;28;47104;-63
2024/03/26 00:32:04;;;;;;;;;4.00;4.00;;;;;14.89;85.93;98605.44;2091776;28;46390;-62
2024/03/26 00:33:04;;;;;;;;;7.00;5.00;;;;;14.84;86.13;98608.41;2100704;28;46529;-63
2024/03/26 00:34:04;;;;;;;;;7.00;6.00;;;;;15.05;85.85;98606.00;2104034;28;45813;-63
2024/03/26 00:35:05;;;;;;;;;4.67;4.67;;;;;15.09;85.88;98602.13;2100176;27;46497;-63
2024/03/26 00:36:06;;;;;;;;;5.67;5.67;;;;;15.16;85.53;98603.41;2102613;27;46433;-63
2024/03/26 00:37:06;;;;;;;;;7.00;5.00;;;;;15.23;84.97;98607.31;2102874;28;45028;-62
2024/03/26 00:38:06;;;;;;;;;5.00;4.33;;;;;15.08;85.14;98600.44;2100021;27;47328;-62
2024/03/26 00:39:08;;;;;;;;;5.00;5.00;;;;;15.28;84.89;98602.50;2094859;28;46585;-63
2024/03/26 00:40:09;;;;;;;;;5.75;5.75;;;;;15.25;84.93;98599.19;2086407;28;46580;-63
2024/03/26 00:41:09;;;;;;;;;6.25;6.25;;;;;15.29;84.35;98600.66;2086451;28;46869;-62
2024/03/26 00:42:09;;;;;;;;;4.67;4.67;;;;;15.29;84.55;98592.66;2094825;28;46191;-63
2024/03/26 00:43:09;;;;;;;;;7.00;7.00;;;;;15.21;84.20;98598.56;2104564;27;46464;-63
2024/03/26 00:44:10;;;;;;;;;6.00;6.00;;;;;15.26;84.27;98595.56;2099973;28;46189;-63
2024/03/26 00:45:10;;;;;;;;;4.00;4.00;;;;;15.25;84.41;98588.50;2098261;27;46192;-63
2024/03/26 00:46:10;;;;;;;;;5.00;5.00;;;;;15.26;84.86;98595.56;2103985;27;45188;-62
2024/03/26 00:47:11;;;;;;;;;6.67;5.00;;;;;15.02;84.59;98593.75;2101956;28;46687;-62
2024/03/26 00:48:11;;;;;;;;;6.67;6.33;;;;;15.01;85.33;98592.03;2100849;28;46079;-63
2024/03/26 00:49:11;;;;;;;;;7.33;6.00;;;;;15.03;85.54;98589.25;2102429;28;46722;-62
2024/03/26 00:50:13;;;;;;;;;6.00;4.67;;;;;14.99;85.49;98591.28;2104613;28;46709;-62
2024/03/26 00:51:13;;;;;;;;;7.25;6.75;;;;;15.04;86.07;98587.44;2103695;27;46645;-63
2024/03/26 00:52:13;;;;;;;;;6.00;4.67;;;;;15.04;85.81;98584.75;2101062;28;46301;-62
2024/03/26 00:53:14;;;;;;;;;7.67;6.33;;;;;15.30;85.28;98589.00;2096481;28;46469;-64
2024/03/26 00:54:14;;;;;;;;;5.67;5.00;;;;;15.10;85.10;98584.28;2098965;28;46468;-63
2024/03/26 00:55:14;;;;;;;;;5.33;5.33;;;;;15.07;85.69;98580.03;2099779;28;46652;-62
2024/03/26 00:56:15;;;;;;;;;6.67;6.67;;;;;15.08;86.12;98586.22;2104630;27;46892;-63
2024/03/26 00:57:15;;;;;;;;;5.00;5.00;;;;;15.09;86.19;98587.94;2104002;27;46319;-63
2024/03/26 00:58:15;;;;;;;;;7.33;5.33;;;;;15.30;85.81;98597.03;2105381;27;45444;-63
2024/03/26 00:59:16;;;;;;;;;7.33;6.00;;;;;15.31;85.03;98583.53;2105427;27;46703;-64
2024/03/26 01:00:16;;;;;;;;;6.00;5.00;;;;;15.29;85.34;98580.16;2104510;27;46793;-63
2024/03/26 01:01:17;;;;;;;;;7.67;7.00;;;;;15.11;85.68;98583.31;2096453;28;46659;-63
2024/03/26 01:02:17;;;;;;;;;6.00;6.00;;;;;15.07;85.46;98582.69;2096224;28;46435;-63
2024/03/26 01:03:17;;;;;;;;;5.33;5.33;;;;;15.09;85.74;98583.44;2104607;27;46315;-63
2024/03/26 01:04:18;;;;;;;;;4.67;4.67;;;;;15.12;86.10;98585.03;2105631;28;47035;-63
2024/03/26 01:05:18;;;;;;;;;6.00;6.00;;;;;15.30;85.85;98575.66;2105665;28;46676;-62
2024/03/26 01:06:18;;;;;;;;;8.00;7.67;;;;;15.24;85.59;98582.28;2101895;28;46900;-62
2024/03/26 01:07:18;;;;;;;;;7.00;7.00;;;;;15.27;85.42;98576.75;2104219;28;46432;-63
2024/03/26 01:08:19;;;;;;;;;6.33;6.00;;;;;15.29;85.23;98576.63;2105487;28;46364;-62
2024/03/26 01:09:19;;;;;;;;;6.67;6.67;;;;;15.28;85.35;98573.09;2105888;27;45501;-59
2024/03/26 01:10:20;;;;;;;;;7.00;7.00;;;;;15.24;85.11;98568.94;2102997;28;46238;-61
2024/03/26 01:11:20;;;;;;;;;6.33;6.33;;;;;15.26;85.12;98574.19;2105356;27;46204;-62
2024/03/26 01:12:20;;;;;;;;;6.00;6.00;;;;;15.21;85.63;98566.50;2101813;28;46246;-63
2024/03/26 01:13:21;;;;;;;;;7.00;7.00;;;;;15.23;85.16;98572.56;2103100;27;46265;-62
2024/03/26 01:14:21;;;;;;;;;5.00;5.00;;;;;15.18;85.16;98565.88;2105240;28;46616;-62
2024/03/26 01:15:22;;;;;;;;;5.00;5.00;;;;;15.21;85.47;98566.50;2095894;28;46939;-62
2024/03/26 01:16:22;;;;;;;;;5.33;5.33;;;;;15.21;85.19;98570.97;2091299;28;46767;-63
2024/03/26 01:17:22;;;;;;;;;6.33;6.00;;;;;15.19;85.58;98565.75;2102495;28;46428;-63
2024/03/26 01:18:23;;;;;;;;;5.67;5.67;;;;;15.19;85.68;98565.75;2100218;28;46880;-63
2024/03/26 01:19:23;;;;;;;;;5.00;3.33;;;;;15.19;85.89;98563.09;2102850;28;46300;-63
2024/03/26 01:20:23;;;;;;;;;6.33;6.00;;;;;15.18;85.76;98564.06;2100229;28;45033;-62
2024/03/26 01:21:23;;;;;;;;;7.00;5.33;;;;;15.15;85.73;98566.97;2100218;28;46302;-63
2024/03/26 01:22:24;;;;;;;;;9.00;8.00;;;;;15.18;86.26;98564.06;2103703;28;46470;-62
2024/03/26 01:23:24;;;;;;;;;6.00;6.00;;;;;15.18;85.81;98564.06;2106618;27;46185;-63
2024/03/26 01:24:25;;;;;;;;;7.67;7.67;;;;;15.19;85.93;98560.41;2111156;27;46892;-62
2024/03/26 01:25:25;;;;;;;;;6.67;6.00;;;;;15.18;85.86;98568.56;2102659;28;46541;-62
2024/03/26 01:26:25;;;;;;;;;7.00;7.00;;;;;15.17;86.04;98564.19;2102367;28;46495;-62
2024/03/26 01:27:26;;;;;;;;;6.00;6.00;;;;;15.16;85.67;98575.84;2105359;28;46323;-63
2024/03/26 01:28:26;;;;;;;;;7.00;7.00;;;;;15.14;85.58;98569.75;2105464;28;45789;-64
2024/03/26 01:29:26;;;;;;;;;7.67;7.00;;;;;15.09;85.82;98566.56;2105884;27;46707;-64
2024/03/26 01:30:27;;;;;;;;;5.00;4.67;;;;;15.07;86.07;98566.66;2105625;27;46563;-63
2024/03/26 01:31:27;;;;;;;;;7.67;7.00;;;;;15.06;86.59;98559.63;2100127;27;46053;-63
2024/03/26 01:32:27;;;;;;;;;6.00;6.00;;;;;15.05;86.92;98559.75;2104670;27;46257;-63
2024/03/26 01:33:28;;;;;;;;;7.00;7.00;;;;;15.02;86.73;98556.34;2104594;28;45809;-62
2024/03/26 01:34:28;;;;;;;;;6.00;6.00;;;;;15.01;87.05;98554.63;2101567;27;46932;-64
2024/03/26 01:35:29;;;;;;;;;8.00;8.00;;;;;15.00;87.04;98552.94;2097635;28;45659;-62
2024/03/26 01:36:29;;;;;;;;;6.67;6.33;;;;;15.00;87.26;98552.94;2100339;28;46478;-62
2024/03/26 01:37:29;;;;;;;;;5.00;5.00;;;;;14.99;87.24;98553.03;2105538;27;46538;-63
2024/03/26 01:38:30;;;;;;;;;7.67;6.00;;;;;15.02;87.69;98556.34;2094851;28;45840;-63
2024/03/26 01:39:30;;;;;;;;;6.00;6.00;;;;;15.00;87.77;98555.59;2096193;28;46168;-64
2024/03/26 01:40:30;;;;;;;;;7.00;5.00;;;;;15.01;87.62;98549.28;2100006;28;46071;-63
2024/03/26 01:41:30;;;;;;;;;6.67;6.00;;;;;15.01;87.32;98538.63;2100406;28;47009;-62
2024/03/26 01:42:31;;;;;;;;;6.00;6.00;;;;;15.02;87.67;98550.16;2101631;28;46268;-63
2024/03/26 01:43:31;;;;;;;;;8.33;7.00;;;;;15.03;87.82;98541.16;2104655;27;46239;-62
2024/03/26 01:44:32;;;;;;;;;7.00;7.00;;;;;14.96;88.24;98548.75;2101792;28;46708;-61
2024/03/26 01:45:33;;;;;;;;;6.25;6.25;;;;;14.99;88.08;98545.00;2097742;28;46759;-63
2024/03/26 01:46:35;;;;;;;;;6.33;6.33;;;;;14.96;88.67;98551.44;2100103;28;46935;-62
2024/03/26 01:47:38;;;;;;;;;7.75;7.00;;;;;14.97;88.62;98549.63;2103343;28;46178;-63
2024/03/26 01:48:39;;;;;;;;;5.00;5.00;;;;;14.98;89.22;98552.16;2101998;28;46637;-62
2024/03/26 01:49:39;;;;;;;;;7.75;7.50;;;;;14.96;89.22;98548.75;2103882;27;46759;-63
2024/03/26 01:50:39;;;;;;;;;7.00;7.00;;;;;15.02;88.81;98561.69;2102090;27;48755;-62
2024/03/26 01:51:42;;;;;;;;;7.00;7.00;;;;;15.05;89.09;98555.25;2100367;27;46719;-63
2024/03/26 01:52:45;;;;;;;;;6.00;6.00;;;;;15.01;89.73;98551.13;2105424;28;46622;-62
2024/03/26 01:53:45;;;;;;;;;9.25;7.00;;;;;15.01;89.91;98556.47;2097152;28;46155;-62
2024/03/26 01:54:47;;;;;;;;;6.00;6.00;;;;;14.99;90.87;98556.56;2101117;28;46740;-63
2024/03/26 01:55:48;;;;;;;;;8.75;8.75;;;;;14.98;91.20;98544.16;2105635;27;46295;-64
2024/03/26 01:56:49;;;;;;;;;8.75;7.75;;;;;14.96;91.72;98548.75;2104320;27;46596;-62
2024/03/26 01:57:50;;;;;;;;;8.00;6.67;;;;;14.91;92.95;98542.94;2104040;27;46305;-63
2024/03/26 01:58:51;;;;;;;;;7.50;7.50;;;;;14.95;93.47;98533.72;2097607;28;45672;-62
2024/03/26 01:59:52;;;;;;;;;6.25;6.00;;;;;14.98;94.00;98540.63;2104034;27;46523;-62
2024/03/26 02:00:54;;;;;;;;;7.00;7.00;;;;;14.93;94.77;98546.31;2105520;27;46917;-63
2024/03/26 02:01:54;;;;;;;;;8.00;6.50;;;;;14.93;95.34;98546.31;2104500;28;47001;-63
2024/03/26 02:02:55;;;;;;;;;7.33;7.33;;;;;14.92;96.27;98543.78;2103575;28;46393;-63
2024/03/26 02:03:56;;;;;;;;;7.00;7.00;;;;;14.92;95.75;98549.97;2106035;27;46736;-64
2024/03/26 02:04:56;;;;;;;;;7.50;7.50;;;;;14.80;96.48;98542.00;2099314;28;47063;-64
2024/03/26 02:05:57;;;;;;;;;7.67;7.67;;;;;14.64;96.93;98536.94;2101362;28;46376;-62
2024/03/26 02:06:57;;;;;;;;;9.00;6.00;;;;;14.63;98.27;98543.25;2104481;28;45119;-63
2024/03/26 02:07:57;;;;;;;;;6.00;6.00;;;;;14.57;99.29;98546.34;2104547;27;46249;-63
2024/03/26 02:09:01;;;;;;;;;4.67;4.67;;;;;14.54;100.00;98544.75;2109612;27;46501;-63
2024/03/26 02:10:03;;;;;;;;;7.00;7.00;;;;;14.64;100.00;98537.81;2104336;27;46504;-65
2024/03/26 02:11:04;;;;;;;;;8.25;7.00;;;;;14.67;100.00;98542.06;2102815;28;46875;-65
2024/03/26 02:12:04;;;;;;;;;6.00;6.00;;;;;14.58;100.00;98537.38;2104766;28;47406;-65
2024/03/26 02:13:05;;;;;;;;;6.33;6.00;;;;;14.56;100.00;98542.84;2105735;28;46491;-64
2024/03/26 02:14:05;;;;;;;;;6.33;6.33;;;;;14.53;100.00;98548.41;2103588;27;46191;-63
2024/03/26 02:15:07;;;;;;;;;7.00;7.00;;;;;14.55;100.00;98538.47;2097027;28;46220;-63
2024/03/26 02:16:07;;;;;;;;;6.50;6.50;;;;;14.54;100.00;98533.22;2105669;27;46973;-64
2024/03/26 02:17:07;;;;;;;;;6.00;6.00;;;;;14.48;100.00;98533.66;2105551;28;47183;-63
2024/03/26 02:18:08;;;;;;;;;9.00;7.00;;;;;14.46;100.00;98531.09;2105681;28;46374;-64
2024/03/26 02:19:08;;;;;;;;;4.00;4.00;;;;;14.45;100.00;98536.56;2102243;28;46539;-64
2024/03/26 02:20:09;;;;;;;;;5.67;5.67;;;;;14.48;100.00;98533.66;2098308;28;46457;-63
2024/03/26 02:21:10;;;;;;;;;7.25;7.25;;;;;14.46;100.00;98531.09;2099484;27;46747;-64
2024/03/26 02:22:10;;;;;;;;;5.67;5.67;;;;;14.47;100.00;98531.97;2102003;28;46683;-63
2024/03/26 02:23:10;;;;;;;;;7.00;7.00;;;;;14.50;100.00;98532.63;2103748;27;46599;-63
2024/03/26 02:24:11;;;;;;;;;6.33;6.33;;;;;14.53;100.00;98535.06;2101089;28;46641;-63
2024/03/26 02:25:11;;;;;;;;;6.00;5.00;;;;;14.53;100.00;98531.53;2101962;28;46444;-63
2024/03/26 02:26:18;;;;;;;;;5.00;5.00;;;;;14.49;100.00;98528.25;2097742;28;46252;-63
2024/03/26 02:27:19;;;;;;;;;7.00;7.00;;;;;14.51;100.00;98526.31;2101014;28;46405;-64
2024/03/26 02:28:19;;;;;;;;;6.00;6.00;;;;;14.51;100.00;98523.63;2100841;28;46369;-63
2024/03/26 02:29:19;;;;;;;;;8.67;7.00;;;;;14.43;100.00;98524.16;2098460;28;46174;-64
2024/03/26 02:30:19;;;;;;;;;13.25;12.50;;;;;14.42;100.00;98521.59;2102685;28;46629;-65
2024/03/26 02:31:20;;;;;;;;;9.33;8.33;;;;;14.42;100.00;98526.94;2095556;28;46260;-64
2024/03/26 02:32:21;;;;;;;;;14.50;12.25;;;;;14.40;100.00;98518.19;2095956;28;46665;-64
2024/03/26 02:33:21;;;;;;;;;8.00;8.00;;;;;14.51;100.00;98525.47;2104814;27;46099;-64
2024/03/26 02:34:21;;;;;;;;;11.67;11.00;;;;;14.50;100.00;98519.28;2105314;27;46619;-62
2024/03/26 02:35:22;;;;;;;;;9.67;9.00;;;;;14.42;100.00;98518.94;2103562;28;47131;-63
2024/03/26 02:36:22;;;;;;;;;9.33;7.67;;;;;14.41;100.00;98518.06;2102866;27;46903;-63
2024/03/26 02:37:22;;;;;;;;;7.00;7.00;;;;;14.42;100.00;98518.94;2106061;27;46617;-63
2024/03/26 02:38:23;;;;;;;;;6.00;6.00;;;;;14.42;100.00;98527.78;2102649;27;46460;-64
2024/03/26 02:39:23;;;;;;;;;7.67;7.67;;;;;14.42;100.00;98524.25;2101664;28;46592;-64
2024/03/26 02:40:24;;;;;;;;;5.00;5.00;;;;;14.42;100.00;98522.44;2105178;28;46610;-63
2024/03/26 02:41:24;;;;;;;;;7.67;7.00;;;;;14.38;100.00;98518.31;2102299;28;46297;-63
2024/03/26 02:42:24;;;;;;;;;9.00;8.00;;;;;14.40;100.00;98519.03;2105018;27;46387;-63
2024/03/26 02:43:25;;;;;;;;;6.00;6.00;;;;;14.40;100.00;98519.03;2093725;28;46524;-63
2024/03/26 02:44:25;;;;;;;;;7.67;7.67;;;;;14.40;100.00;98526.19;2094069;28;47347;-63
2024/03/26 02:45:26;;;;;;;;;7.00;5.67;;;;;14.39;100.00;98520.00;2097768;28;46648;-63
2024/03/26 02:46:27;;;;;;;;;8.75;6.50;;;;;14.38;100.00;98523.66;2094281;28;47280;-63
2024/03/26 02:47:27;;;;;;;;;6.00;6.00;;;;;14.37;100.00;98515.75;2095686;28;45207;-63
2024/03/26 02:48:27;;;;;;;;;6.67;6.00;;;;;14.36;100.00;98519.38;2104197;28;46616;-63
2024/03/26 02:49:28;;;;;;;;;8.00;8.00;;;;;14.36;100.00;98511.38;2091680;28;46706;-63
2024/03/26 02:50:28;;;;;;;;;8.33;8.33;;;;;14.35;100.00;98514.97;2087613;28;46690;-63
2024/03/26 02:51:28;;;;;;;;;6.67;6.67;;;;;14.35;100.00;98512.31;2102588;27;46330;-63
2024/03/26 02:52:28;;;;;;;;;6.33;6.33;;;;;14.32;100.00;98508.06;2104218;28;45526;-64
2024/03/26 02:53:29;;;;;;;;;8.67;7.67;;;;;14.31;100.00;98511.69;2104482;27;46727;-63
2024/03/26 02:54:29;;;;;;;;;7.00;6.67;;;;;14.32;100.00;98512.53;2103919;27;46556;-64
2024/03/26 02:55:29;;;;;;;;;9.67;7.00;;;;;14.32;100.00;98505.41;2105921;28;46470;-63
2024/03/26 02:56:31;;;;;;;;;7.00;7.00;;;;;14.32;100.00;98510.72;2100809;27;46545;-63
2024/03/26 02:57:32;;;;;;;;;8.25;7.50;;;;;14.34;100.00;98505.28;2101795;28;46279;-64
2024/03/26 02:58:32;;;;;;;;;5.67;5.67;;;;;14.35;100.00;98505.16;2098903;28;45878;-64
2024/03/26 02:59:32;;;;;;;;;7.00;6.67;;;;;14.37;100.00;98513.09;2098505;27;46243;-63
2024/03/26 03:00:33;;;;;;;;;10.33;6.67;;;;;14.38;100.00;98504.13;2100257;28;45139;-64
2024/03/26 03:01:33;;;;;;;;;7.00;7.00;;;;;14.38;100.00;98512.13;2101723;28;46581;-62
2024/03/26 03:02:33;;;;;;;;;9.00;7.00;;;;;14.37;100.00;98502.41;2103613;27;46070;-63
2024/03/26 03:03:37;;;;;;;;;6.67;6.67;;;;;14.39;100.00;98501.34;2104856;27;46907;-64
2024/03/26 03:04:38;;;;;;;;;7.00;7.00;;;;;14.40;100.00;98492.34;2104948;27;46562;-61
2024/03/26 03:05:40;;;;;;;;;7.67;7.67;;;;;14.42;100.00;98501.09;2105037;28;46162;-62
2024/03/26 03:06:40;;;;;;;;;5.75;5.75;;;;;14.41;100.00;98488.72;2105678;27;46807;-61
2024/03/26 03:07:40;;;;;;;;;8.67;7.33;;;;;14.42;100.00;98502.91;2105078;27;46573;-63
2024/03/26 03:08:41;;;;;;;;;6.67;6.67;;;;;14.42;100.00;98492.25;2102474;28;46602;-62
2024/03/26 03:09:45;;;;;;;;;6.00;6.00;;;;;14.42;100.00;98492.25;2104506;28;45370;-63
2024/03/26 03:10:45;;;;;;;;;7.00;6.25;;;;;14.42;100.00;98486.91;2101842;27;46834;-63
2024/03/26 03:11:46;;;;;;;;;8.00;7.00;;;;;14.43;100.00;98488.59;2101639;28;46581;-63
2024/03/26 03:12:46;;;;;;;;;9.33;9.33;;;;;14.45;100.00;98485.84;2105127;27;46531;-62
2024/03/26 03:13:46;;;;;;;;;9.00;8.00;;;;;14.48;100.00;98488.28;2104859;27;46251;-63
2024/03/26 03:14:47;;;;;;;;;8.00;8.00;;;;;14.50;100.00;98483.72;2103074;27;46300;-63
2024/03/26 03:15:47;;;;;;;;;7.00;7.00;;;;;14.51;100.00;98486.28;2095668;28;46462;-63
2024/03/26 03:16:48;;;;;;;;;7.33;7.00;;;;;14.50;100.00;98481.06;2101647;28;46785;-62
2024/03/26 03:17:48;;;;;;;;;6.67;6.67;;;;;14.50;100.00;98484.56;2103890;27;46017;-63
2024/03/26 03:18:49;;;;;;;;;7.67;7.67;;;;;14.47;100.00;98483.94;2102129;27;46011;-62
2024/03/26 03:19:49;;;;;;;;;7.33;7.33;;;;;14.57;100.00;98483.16;2102541;27;46930;-62
2024/03/26 03:20:50;;;;;;;;;6.67;6.67;;;;;14.55;100.00;98482.41;2102036;28;46729;-63
2024/03/26 03:21:50;;;;;;;;;7.00;7.00;;;;;14.56;100.00;98484.09;2104677;28;46261;-62
2024/03/26 03:22:51;;;;;;;;;5.00;5.00;;;;;14.56;100.00;98477.91;2104820;27;46303;-63
2024/03/26 03:23:51;;;;;;;;;7.00;6.00;;;;;14.55;100.00;98485.06;2105404;27;46397;-63
2024/03/26 03:24:51;;;;;;;;;9.67;7.00;;;;;14.55;100.00;98484.22;2104000;27;46578;-63
2024/03/26 03:25:55;;;;;;;;;8.00;7.67;;;;;14.54;100.00;98483.38;2092452;28;46516;-62
2024/03/26 03:26:56;;;;;;;;;6.50;6.50;;;;;14.54;100.00;98490.53;2095832;28;46596;-63
2024/03/26 03:27:56;;;;;;;;;8.00;8.00;;;;;14.56;100.00;98483.25;2100775;28;46405;-65
2024/03/26 03:28:56;;;;;;;;;5.00;5.00;;;;;14.55;100.00;98490.41;2100605;28;46321;-61
2024/03/26 03:29:57;;;;;;;;;7.33;7.00;;;;;14.56;100.00;98496.59;2104308;28;46198;-63
2024/03/26 03:30:57;;;;;;;;;7.00;7.00;;;;;14.60;100.00;98495.41;2103770;27;46297;-63
2024/03/26 03:31:57;;;;;;;;;8.33;8.33;;;;;14.61;100.00;98489.09;2103293;28;46516;-62
2024/03/26 03:32:58;;;;;;;;;6.33;6.33;;;;;14.63;100.00;98492.53;2105100;28;46100;-63
2024/03/26 03:33:58;;;;;;;;;7.67;6.67;;;;;14.61;100.00;98495.31;2112422;27;46509;-64
2024/03/26 03:34:58;;;;;;;;;6.33;5.00;;;;;14.61;100.00;98498.00;2112737;27;46304;-63
2024/03/26 03:35:59;;;;;;;;;8.00;8.00;;;;;14.59;100.00;98491.03;2104369;28;46229;-63
2024/03/26 03:37:00;;;;;;;;;6.00;6.00;;;;;14.56;100.00;98489.44;2082228;28;47091;-64
2024/03/26 03:38:00;;;;;;;;;7.67;6.67;;;;;14.56;100.00;98494.78;2094992;28;46667;-64
2024/03/26 03:39:00;;;;;;;;;5.67;5.67;;;;;14.58;100.00;98494.66;2098632;28;46511;-62
2024/03/26 03:40:01;;;;;;;;;6.00;6.00;;;;;14.57;100.00;98487.63;2100135;28;46165;-62
2024/03/26 03:41:01;;;;;;;;;7.00;7.00;;;;;14.60;100.00;98487.41;2098894;28;45032;-64
2024/03/26 03:42:01;;;;;;;;;8.67;7.00;;;;;14.62;100.00;98482.81;2102184;28;46190;-63
2024/03/26 03:43:02;;;;;;;;;7.00;7.00;;;;;14.61;100.00;98483.75;2098380;28;46449;-64
2024/03/26 03:44:02;;;;;;;;;8.00;7.00;;;;;14.60;100.00;98484.72;2102438;28;45535;-63
2024/03/26 03:45:04;;;;;;;;;9.33;8.67;;;;;14.58;100.00;98487.50;2104247;28;46271;-64
2024/03/26 03:46:04;;;;;;;;;8.00;8.00;;;;;14.54;100.00;98486.03;2103775;28;46699;-63
2024/03/26 03:47:05;;;;;;;;;8.67;8.33;;;;;14.52;100.00;98487.97;2103881;27;46496;-64
2024/03/26 03:48:06;;;;;;;;;8.67;8.00;;;;;14.51;100.00;98483.59;2104877;27;45545;-62
2024/03/26 03:49:06;;;;;;;;;9.00;9.00;;;;;14.52;100.00;98492.47;2103084;27;45890;-64
2024/03/26 03:50:07;;;;;;;;;9.00;9.00;;;;;14.48;100.00;98491.81;2104831;28;46411;-64
2024/03/26 03:51:07;;;;;;;;;8.00;8.00;;;;;14.48;100.00;98482.97;2098108;28;46367;-64
2024/03/26 03:52:09;;;;;;;;;9.67;9.67;;;;;14.49;100.00;98490.03;2102683;27;46766;-63
2024/03/26 03:53:09;;;;;;;;;8.50;8.50;;;;;14.49;100.00;98485.53;2104544;27;46474;-62
2024/03/26 03:54:09;;;;;;;;;8.00;8.00;;;;;14.49;100.00;98492.69;2104519;28;46319;-63
2024/03/26 03:55:10;;;;;;;;;6.00;6.00;;;;;14.48;100.00;98491.81;2104683;28;47075;-63
2024/03/26 03:56:10;;;;;;;;;9.67;9.00;;;;;14.47;100.00;98490.13;2104852;27;46500;-63
2024/03/26 03:57:10;;;;;;;;;9.00;8.00;;;;;14.47;100.00;98494.59;2104911;28;46664;-63
2024/03/26 03:58:10;;;;;;;;;8.00;8.00;;;;;14.46;100.00;98498.22;2104900;28;44964;-65
2024/03/26 03:59:11;;;;;;;;;8.00;7.00;;;;;14.43;100.00;98494.78;2104976;27;45612;-63
2024/03/26 04:00:12;;;;;;;;;9.33;8.00;;;;;14.42;100.00;98498.44;2104899;27;46304;-64
2024/03/26 04:01:12;;;;;;;;;7.00;7.00;;;;;14.43;100.00;98483.28;2104765;27;46749;-62
2024/03/26 04:02:12;;;;;;;;;8.00;7.33;;;;;14.43;100.00;98496.63;2104671;28;46383;-64
2024/03/26 04:03:12;;;;;;;;;11.00;9.67;;;;;14.41;100.00;98499.41;2103298;27;46325;-63
2024/03/26 04:04:13;;;;;;;;;6.33;6.33;;;;;14.37;100.00;98494.41;2104594;28;45991;-62
2024/03/26 04:05:14;;;;;;;;;8.00;7.67;;;;;14.33;100.00;98488.41;2105261;28;45593;-63
2024/03/26 04:06:14;;;;;;;;;8.00;8.00;;;;;14.32;100.00;98489.38;2104566;27;46545;-62
2024/03/26 04:07:14;;;;;;;;;7.00;7.00;;;;;14.33;100.00;98491.09;2103107;28;46346;-63
2024/03/26 04:08:15;;;;;;;;;7.33;7.00;;;;;14.32;100.00;98494.72;2104029;28;46181;-61
2024/03/26 04:09:15;;;;;;;;;9.00;8.00;;;;;14.42;100.00;98486.91;2102257;28;46996;-63
2024/03/26 04:10:15;;;;;;;;;7.00;7.00;;;;;14.48;100.00;98490.97;2101202;28;45713;-64
2024/03/26 04:11:15;;;;;;;;;7.00;7.00;;;;;14.49;100.00;98487.34;2105584;27;44875;-62
2024/03/26 04:12:16;;;;;;;;;8.00;7.00;;;;;14.40;100.00;98497.69;2100610;27;46283;-63
2024/03/26 04:13:16;;;;;;;;;6.00;6.00;;;;;14.45;100.00;98491.19;2099818;28;46425;-62
2024/03/26 04:14:16;;;;;;;;;7.00;7.00;;;;;14.47;100.00;98489.25;2102190;28;46663;-64
2024/03/26 04:15:17;;;;;;;;;7.67;7.67;;;;;14.48;100.00;98486.47;2103716;28;46371;-65
2024/03/26 04:16:18;;;;;;;;;7.75;7.75;;;;;14.47;100.00;98490.13;2104365;28;46529;-63
2024/03/26 04:17:18;;;;;;;;;8.00;8.00;;;;;14.42;100.00;98484.25;2104995;27;46773;-63
2024/03/26 04:18:18;;;;;;;;;7.00;7.00;;;;;14.42;100.00;98487.75;2102972;27;45527;-63
2024/03/26 04:19:19;;;;;;;;;9.33;8.33;;;;;14.41;100.00;98488.72;2101917;28;45677;-63
2024/03/26 04:20:19;;;;;;;;;6.67;6.67;;;;;14.41;100.00;98487.88;2104926;27;45562;-62
2024/03/26 04:21:19;;;;;;;;;9.00;8.00;;;;;14.39;100.00;98497.81;2104334;28;46693;-63
2024/03/26 04:22:20;;;;;;;;;5.67;5.00;;;;;14.43;100.00;98484.13;2100909;28;46520;-64
2024/03/26 04:23:20;;;;;;;;;9.00;8.00;;;;;14.38;100.00;98488.97;2104496;28;46732;-62
2024/03/26 04:24:21;;;;;;;;;8.67;8.00;;;;;14.40;100.00;98486.16;2098029;28;46135;-64
2024/03/26 04:25:21;;;;;;;;;9.33;9.00;;;;;14.43;100.00;98485.94;2102875;28;46295;-63
2024/03/26 04:26:21;;;;;;;;;8.00;8.00;;;;;14.41;100.00;98496.72;2103553;28;46078;-63
2024/03/26 04:27:22;;;;;;;;;7.67;7.67;;;;;14.23;100.00;98498.06;2101263;28;46588;-64
2024/03/26 04:28:23;;;;;;;;;7.00;7.00;;;;;14.32;100.00;98493.88;2104568;28;46652;-64
2024/03/26 04:29:24;;;;;;;;;7.00;6.00;;;;;14.30;100.00;98488.66;2104374;28;46803;-64
2024/03/26 04:30:25;;;;;;;;;7.75;7.75;;;;;14.31;100.00;98495.69;2098235;28;46938;-63
2024/03/26 04:31:25;;;;;;;;;8.00;7.33;;;;;14.31;100.00;98490.34;2104608;28;46678;-65
2024/03/26 04:32:25;;;;;;;;;6.33;6.33;;;;;14.30;100.00;98490.47;2102909;27;46702;-64
2024/03/26 04:33:25;;;;;;;;;7.67;7.67;;;;;14.29;100.00;98494.09;2102571;28;46519;-63
2024/03/26 04:34:26;;;;;;;;;8.67;8.67;;;;;14.34;100.00;98487.44;2103722;28;46158;-62
2024/03/26 04:35:26;;;;;;;;;6.00;6.00;;;;;14.35;100.00;98489.16;2103513;27;46483;-64
2024/03/26 04:36:26;;;;;;;;;6.00;6.00;;;;;14.37;100.00;98486.41;2104634;28;45750;-62
2024/03/26 04:37:27;;;;;;;;;9.00;9.00;;;;;14.37;100.00;98486.41;2094014;28;47140;-64
2024/03/26 04:38:27;;;;;;;;;10.00;8.67;;;;;14.35;100.00;98485.63;2094466;28;46330;-64
2024/03/26 04:39:27;;;;;;;;;7.00;7.00;;;;;14.34;100.00;98486.59;2096174;28;46440;-64
2024/03/26 04:40:28;;;;;;;;;7.33;7.33;;;;;14.36;100.00;98487.38;2101588;28;45891;-64
2024/03/26 04:41:28;;;;;;;;;8.00;8.00;;;;;14.36;100.00;98490.03;2104034;27;46756;-64
2024/03/26 04:42:28;;;;;;;;;7.67;7.33;;;;;14.37;100.00;98489.06;2103980;28;46515;-63
2024/03/26 04:43:29;;;;;;;;;7.33;7.33;;;;;14.36;100.00;98480.22;2103969;28;46874;-62